createdAt,value
2019-04-27T00:00:38.962Z,9.40
2019-04-27T00:03:09.028Z,9.40
2019-04-27T00:05:39.074Z,9.40
2019-04-27T00:08:28.489Z,9.40
2019-04-27T00:11:09.223Z,9.40
2019-04-27T00:13:40.693Z,9.40
2019-04-27T00:16:10.159Z,9.40
2019-04-27T00:18:58.090Z,9.40
2019-04-27T00:21:32.808Z,9.40
2019-04-27T00:24:01.455Z,9.40
2019-04-27T00:26:29.871Z,9.40
2019-04-27T00:28:58.308Z,9.40
2019-04-27T00:31:26.718Z,9.30
2019-04-27T00:33:55.145Z,9.20
2019-04-27T00:36:27.933Z,9.20
2019-04-27T00:38:58.083Z,9.10
2019-04-27T00:41:26.480Z,9.10
2019-04-27T00:43:54.907Z,9.10
2019-04-27T00:46:23.389Z,9.10
2019-04-27T00:48:53.286Z,9.10
2019-04-27T00:51:23.166Z,9.00
2019-04-27T00:53:53.608Z,9.00
2019-04-27T00:56:39.746Z,9.00
2019-04-27T00:59:09.821Z,9.00
2019-04-27T01:01:39.882Z,9.00
2019-04-27T01:04:15.658Z,9.00
2019-04-27T01:06:44.074Z,9.00
2019-04-27T01:09:14.386Z,9.00
2019-04-27T01:11:43.410Z,9.10
2019-04-27T01:14:12.841Z,9.00
2019-04-27T01:16:41.643Z,9.00
2019-04-27T01:19:10.425Z,8.90
2019-04-27T01:21:39.671Z,8.90
2019-04-27T01:24:08.983Z,9.00
2019-04-27T01:26:39.270Z,9.00
2019-04-27T01:29:10.263Z,9.00
2019-04-27T01:31:39.670Z,9.00
2019-04-27T01:34:09.269Z,9.10
2019-04-27T01:36:39.265Z,9.10
2019-04-27T01:39:10.532Z,9.10
2019-04-27T01:41:39.146Z,9.10
2019-04-27T01:44:09.202Z,9.10
2019-04-27T01:46:39.479Z,9.10
2019-04-27T01:49:09.188Z,9.10
2019-04-27T01:51:39.131Z,9.10
2019-04-27T01:54:10.359Z,9.10
2019-04-27T01:56:39.509Z,9.10
2019-04-27T01:59:08.638Z,9.10
2019-04-27T02:01:41.587Z,9.20
2019-04-27T02:04:19.216Z,9.20
2019-04-27T02:06:49.539Z,9.20
2019-04-27T02:09:20.828Z,9.20
2019-04-27T02:11:49.502Z,9.20
2019-04-27T02:14:19.584Z,9.20
2019-04-27T02:16:49.255Z,9.20
2019-04-27T02:19:19.383Z,9.10
2019-04-27T02:21:51.102Z,9.10
2019-04-27T02:24:18.649Z,9.10
2019-04-27T02:26:47.429Z,9.10
2019-04-27T02:29:23.504Z,9.00
2019-04-27T02:31:53.563Z,9.10
2019-04-27T02:34:39.958Z,9.10
2019-04-27T02:37:10.222Z,9.10
2019-04-27T02:39:39.897Z,9.20
2019-04-27T02:42:10.159Z,9.10
2019-04-27T02:44:40.888Z,9.20
2019-04-27T02:47:10.495Z,9.20
2019-04-27T02:49:40.630Z,9.20
2019-04-27T02:52:30.146Z,9.20
2019-04-27T02:54:59.378Z,9.20
2019-04-27T02:57:30.138Z,9.20
2019-04-27T02:59:59.996Z,9.20
2019-04-27T03:02:30.258Z,9.30
2019-04-27T03:05:00.602Z,9.20
2019-04-27T03:07:30.172Z,9.20
2019-04-27T03:09:59.582Z,9.30
2019-04-27T03:12:30.759Z,9.20
2019-04-27T03:15:02.054Z,9.20
2019-04-27T03:17:49.304Z,9.20
2019-04-27T03:20:25.031Z,9.20
2019-04-27T03:23:00.099Z,9.20
2019-04-27T03:25:32.317Z,9.20
2019-04-27T03:28:04.459Z,9.20
2019-04-27T03:30:36.126Z,9.10
2019-04-27T03:33:03.738Z,9.10
2019-04-27T03:35:36.706Z,9.10
2019-04-27T03:38:02.566Z,9.10
2019-04-27T03:40:31.034Z,9.00
2019-04-27T03:43:01.203Z,9.00
2019-04-27T03:45:30.161Z,9.00
2019-04-27T03:48:00.449Z,9.00
2019-04-27T03:50:30.712Z,9.00
2019-04-27T03:53:17.175Z,9.00
2019-04-27T03:56:00.012Z,8.90
2019-04-27T03:58:42.776Z,8.90
2019-04-27T04:01:11.212Z,8.90
2019-04-27T04:03:39.694Z,8.80
2019-04-27T04:06:10.526Z,8.80
2019-04-27T04:08:39.743Z,8.80
2019-04-27T04:11:15.667Z,8.70
2019-04-27T04:14:00.764Z,8.80
2019-04-27T04:16:42.740Z,8.80
2019-04-27T04:19:11.440Z,8.80
2019-04-27T04:21:40.283Z,8.80
2019-04-27T04:24:11.418Z,8.90
2019-04-27T04:26:40.226Z,8.90
2019-04-27T04:29:10.306Z,8.90
2019-04-27T04:31:40.442Z,8.90
2019-04-27T04:34:11.781Z,8.90
2019-04-27T04:36:39.407Z,8.90
2019-04-27T04:39:12.049Z,8.90
2019-04-27T04:41:43.633Z,8.90
2019-04-27T04:44:13.217Z,8.90
2019-04-27T04:46:50.164Z,8.90
2019-04-27T04:49:19.468Z,8.90
2019-04-27T04:51:50.183Z,8.90
2019-04-27T04:54:19.868Z,9.00
2019-04-27T04:56:49.380Z,9.10
2019-04-27T04:59:19.963Z,9.20
2019-04-27T05:01:49.948Z,9.20
2019-04-27T05:04:19.303Z,9.30
2019-04-27T05:06:49.225Z,9.30
2019-04-27T05:09:19.393Z,9.40
2019-04-27T05:11:48.656Z,9.50
2019-04-27T05:14:17.321Z,9.50
2019-04-27T05:16:45.746Z,9.50
2019-04-27T05:19:14.164Z,9.60
2019-04-27T05:21:42.668Z,9.60
2019-04-27T05:24:11.166Z,9.60
2019-04-27T05:26:39.910Z,9.70
2019-04-27T05:29:09.092Z,9.70
2019-04-27T05:31:38.824Z,9.70
2019-04-27T05:34:09.320Z,9.70
2019-04-27T05:36:41.743Z,9.80
2019-04-27T05:39:09.649Z,9.80
2019-04-27T05:41:41.231Z,9.80
2019-04-27T05:44:12.643Z,9.90
2019-04-27T05:46:44.758Z,9.90
2019-04-27T05:49:23.770Z,9.90
2019-04-27T05:51:52.227Z,10.00
2019-04-27T05:54:20.651Z,10.00
2019-04-27T05:56:49.298Z,10.00
2019-04-27T05:59:19.266Z,10.10
2019-04-27T06:01:49.238Z,10.10
2019-04-27T06:04:19.298Z,10.10
2019-04-27T06:06:49.725Z,10.10
2019-04-27T06:09:19.364Z,10.10
2019-04-27T06:11:50.406Z,10.10
2019-04-27T06:14:19.239Z,10.10
2019-04-27T06:16:51.017Z,10.20
2019-04-27T06:19:19.364Z,10.10
2019-04-27T06:21:49.830Z,10.10
2019-04-27T06:24:18.608Z,10.10
2019-04-27T06:26:47.169Z,10.10
2019-04-27T06:29:15.605Z,10.10
2019-04-27T06:31:44.098Z,10.10
2019-04-27T06:34:12.529Z,10.10
2019-04-27T06:36:40.947Z,10.10
2019-04-27T06:39:09.895Z,10.10
2019-04-27T06:41:39.967Z,10.10
2019-04-27T06:44:11.009Z,10.10
2019-04-27T06:46:40.352Z,10.10
2019-04-27T06:49:10.814Z,10.10
2019-04-27T06:51:40.003Z,10.10
2019-04-27T06:54:09.303Z,10.10
2019-04-27T06:56:38.915Z,10.10
2019-04-27T06:59:08.766Z,10.10
2019-04-27T07:01:39.271Z,10.10
2019-04-27T07:04:10.506Z,10.10
2019-04-27T07:06:52.267Z,10.10
2019-04-27T07:09:10.263Z,10.20
2019-04-27T07:11:39.450Z,10.20
2019-04-27T07:14:09.562Z,10.20
2019-04-27T07:16:39.235Z,10.30
2019-04-27T07:19:09.414Z,10.30
2019-04-27T07:21:39.878Z,10.30
2019-04-27T07:24:09.011Z,10.40
2019-04-27T07:26:39.056Z,10.50
2019-04-27T07:29:09.537Z,10.60
2019-04-27T07:31:40.066Z,10.60
2019-04-27T07:34:09.379Z,10.60
2019-04-27T07:36:39.250Z,10.70
2019-04-27T07:39:11.023Z,10.70
2019-04-27T07:41:38.873Z,10.70
2019-04-27T07:44:19.365Z,10.70
2019-04-27T07:46:49.890Z,10.70
2019-04-27T07:49:19.042Z,10.70
2019-04-27T07:51:48.994Z,10.70
2019-04-27T07:54:18.935Z,10.70
2019-04-27T07:56:48.839Z,10.70
2019-04-27T07:59:18.849Z,10.70
2019-04-27T08:01:49.137Z,10.70
2019-04-27T08:04:18.842Z,10.70
2019-04-27T08:06:47.369Z,10.70
2019-04-27T08:09:16.373Z,10.70
2019-04-27T08:11:45.366Z,10.60
2019-04-27T08:14:13.798Z,10.60
2019-04-27T08:16:42.242Z,10.60
2019-04-27T08:19:10.681Z,10.60
2019-04-27T08:21:44.290Z,10.60
2019-04-27T08:24:10.941Z,10.60
2019-04-27T08:26:53.023Z,10.50
2019-04-27T08:29:23.086Z,10.50
2019-04-27T08:31:55.570Z,10.60
2019-04-27T08:34:33.596Z,10.60
2019-04-27T08:37:03.597Z,10.60
2019-04-27T08:39:32.096Z,10.60
2019-04-27T08:42:00.512Z,10.70
2019-04-27T08:44:29.270Z,10.60
2019-04-27T08:46:59.620Z,10.70
2019-04-27T08:49:29.261Z,10.70
2019-04-27T08:52:01.652Z,10.70
2019-04-27T08:54:29.444Z,10.70
2019-04-27T08:56:59.619Z,10.80
2019-04-27T08:59:29.614Z,10.80
2019-04-27T09:01:58.737Z,10.90
2019-04-27T09:04:28.857Z,10.90
2019-04-27T09:06:59.777Z,10.90
2019-04-27T09:09:39.700Z,10.90
2019-04-27T09:12:26.355Z,11.00
2019-04-27T09:14:56.426Z,11.10
2019-04-27T09:17:26.555Z,11.10
2019-04-27T09:19:56.633Z,11.10
2019-04-27T09:22:25.053Z,11.10
2019-04-27T09:24:53.503Z,11.10
2019-04-27T09:27:21.934Z,11.20
2019-04-27T09:29:50.373Z,11.30
2019-04-27T09:32:19.144Z,11.30
2019-04-27T09:34:47.708Z,11.30
2019-04-27T09:37:16.129Z,11.30
2019-04-27T09:39:46.117Z,11.30
2019-04-27T09:42:16.632Z,11.40
2019-04-27T09:44:45.649Z,11.40
2019-04-27T09:47:16.400Z,11.40
2019-04-27T09:49:46.092Z,11.40
2019-04-27T09:52:24.399Z,11.50
2019-04-27T09:54:50.533Z,11.50
2019-04-27T09:57:18.960Z,11.60
2019-04-27T09:59:47.467Z,11.60
2019-04-27T10:02:16.519Z,11.60
2019-04-27T10:04:46.173Z,11.60
2019-04-27T10:07:16.536Z,11.70
2019-04-27T10:09:45.484Z,11.60
2019-04-27T10:12:15.902Z,11.50
2019-04-27T10:14:45.413Z,11.50
2019-04-27T10:17:14.514Z,11.40
2019-04-27T10:19:43.010Z,11.40
2019-04-27T10:22:11.577Z,11.40
2019-04-27T10:24:40.005Z,11.30
2019-04-27T10:27:08.434Z,11.30
2019-04-27T10:29:36.852Z,11.40
2019-04-27T10:32:06.208Z,11.40
2019-04-27T10:34:34.947Z,11.40
2019-04-27T10:37:22.724Z,11.50
2019-04-27T10:39:51.137Z,11.50
2019-04-27T10:42:19.579Z,11.60
2019-04-27T10:44:47.982Z,11.80
2019-04-27T10:47:16.439Z,11.70
2019-04-27T10:49:46.551Z,11.70
2019-04-27T10:52:15.244Z,11.70
2019-04-27T10:54:43.658Z,11.80
2019-04-27T10:57:12.087Z,11.70
2019-04-27T10:59:40.505Z,11.60
2019-04-27T11:02:09.090Z,11.60
2019-04-27T11:04:42.308Z,11.60
2019-04-27T11:07:12.409Z,11.60
2019-04-27T11:09:40.935Z,11.60
2019-04-27T11:12:09.372Z,11.60
2019-04-27T11:14:37.793Z,11.70
2019-04-27T11:17:07.997Z,11.70
2019-04-27T11:19:36.433Z,11.80
2019-04-27T11:22:07.124Z,11.90
2019-04-27T11:24:35.001Z,11.90
2019-04-27T11:27:05.790Z,12.00
2019-04-27T11:29:35.947Z,12.10
2019-04-27T11:32:05.748Z,12.20
2019-04-27T11:34:52.322Z,12.20
2019-04-27T11:37:22.412Z,12.30
2019-04-27T11:39:50.838Z,12.30
2019-04-27T11:42:19.279Z,12.30
2019-04-27T11:44:47.727Z,12.40
2019-04-27T11:47:16.313Z,12.50
2019-04-27T11:49:45.696Z,12.50
2019-04-27T11:52:15.747Z,12.50
2019-04-27T11:54:45.776Z,12.60
2019-04-27T11:57:14.364Z,12.60
2019-04-27T11:59:42.784Z,12.60
2019-04-27T12:02:11.230Z,12.60
2019-04-27T12:04:39.675Z,12.60
2019-04-27T12:07:08.109Z,12.60
2019-04-27T12:09:36.534Z,12.70
2019-04-27T12:12:13.569Z,12.80
2019-04-27T12:14:35.281Z,13.00
2019-04-27T12:17:03.711Z,13.00
2019-04-27T12:19:32.220Z,13.00
2019-04-27T12:22:06.249Z,12.90
2019-04-27T12:24:35.621Z,12.80
2019-04-27T12:27:05.859Z,12.60
2019-04-27T12:29:52.339Z,12.50
2019-04-27T12:32:20.762Z,12.60
2019-04-27T12:34:49.193Z,12.80
2019-04-27T12:37:17.638Z,12.90
2019-04-27T12:39:46.061Z,12.90
2019-04-27T12:42:16.000Z,12.90
2019-04-27T12:44:45.918Z,13.00
2019-04-27T12:47:16.224Z,13.00
2019-04-27T12:49:44.586Z,13.00
2019-04-27T12:52:13.023Z,13.00
2019-04-27T12:54:48.606Z,13.00
2019-04-27T12:57:21.407Z,12.90
2019-04-27T13:00:08.001Z,12.80
2019-04-27T13:02:36.455Z,12.60
2019-04-27T13:05:08.067Z,12.40
2019-04-27T13:07:36.497Z,12.20
2019-04-27T13:10:08.015Z,11.90
2019-04-27T13:12:36.443Z,11.80
2019-04-27T13:15:09.559Z,11.70
2019-04-27T13:17:37.981Z,11.80
2019-04-27T13:20:08.321Z,11.90
2019-04-27T13:22:37.209Z,11.90
2019-04-27T13:25:07.843Z,12.00
2019-04-27T13:27:36.746Z,12.00
2019-04-27T13:30:07.495Z,12.00
2019-04-27T13:32:36.526Z,11.90
2019-04-27T13:35:06.670Z,11.90
2019-04-27T13:37:39.432Z,11.90
2019-04-27T13:40:09.950Z,11.80
2019-04-27T13:42:43.113Z,11.70
2019-04-27T13:45:19.231Z,11.80
2019-04-27T13:47:52.056Z,11.70
2019-04-27T13:50:24.853Z,11.70
2019-04-27T13:52:53.269Z,11.60
2019-04-27T13:55:24.266Z,11.60
2019-04-27T13:57:52.710Z,11.60
2019-04-27T14:00:21.218Z,11.60
2019-04-27T14:02:50.189Z,11.60
2019-04-27T14:05:18.636Z,11.70
2019-04-27T14:07:47.065Z,11.70
2019-04-27T14:10:17.937Z,11.90
2019-04-27T14:12:48.781Z,12.10
2019-04-27T14:15:18.668Z,12.60
2019-04-27T14:17:47.198Z,13.10
2019-04-27T14:20:15.875Z,13.30
2019-04-27T14:22:44.348Z,12.50
2019-04-27T14:25:12.982Z,11.40
2019-04-27T14:27:41.594Z,11.20
2019-04-27T14:30:12.198Z,10.60
2019-04-27T14:32:42.440Z,10.60
2019-04-27T14:35:11.257Z,10.00
2019-04-27T14:37:40.276Z,10.30
2019-04-27T14:40:09.091Z,10.40
2019-04-27T14:42:37.513Z,10.20
2019-04-27T14:45:09.024Z,9.80
2019-04-27T14:47:38.306Z,9.70
2019-04-27T14:50:08.835Z,9.80
2019-04-27T14:52:40.558Z,10.10
2019-04-27T14:55:08.656Z,10.20
2019-04-27T14:57:39.465Z,10.40
2019-04-27T15:00:10.323Z,10.80
2019-04-27T15:02:39.272Z,10.90
2019-04-27T15:05:08.082Z,11.00
2019-04-27T15:07:36.508Z,11.00
2019-04-27T15:10:05.955Z,11.00
2019-04-27T15:12:34.439Z,11.20
2019-04-27T15:15:03.022Z,11.20
2019-04-27T15:17:31.467Z,11.30
2019-04-27T15:20:17.749Z,11.30
2019-04-27T15:22:52.543Z,11.30
2019-04-27T15:25:17.027Z,11.30
2019-04-27T15:27:47.197Z,11.20
2019-04-27T15:30:22.148Z,11.20
2019-04-27T15:32:51.962Z,11.30
2019-04-27T15:35:40.487Z,11.30
2019-04-27T15:38:14.087Z,11.40
2019-04-27T15:41:00.505Z,11.40
2019-04-27T15:43:31.050Z,11.50
2019-04-27T15:45:59.557Z,11.50
2019-04-27T15:48:30.406Z,11.60
2019-04-27T15:51:02.777Z,11.60
2019-04-27T15:53:28.479Z,11.60
2019-04-27T15:55:58.306Z,11.60
2019-04-27T15:58:28.415Z,11.60
2019-04-27T16:01:00.644Z,11.80
2019-04-27T16:03:31.277Z,11.90
2019-04-27T16:05:58.821Z,12.20
2019-04-27T16:08:28.792Z,12.30
2019-04-27T16:10:58.835Z,12.40
2019-04-27T16:13:32.886Z,12.30
2019-04-27T16:15:58.748Z,12.20
2019-04-27T16:18:31.042Z,12.20
2019-04-27T16:20:58.593Z,12.10
2019-04-27T16:23:28.246Z,12.00
2019-04-27T16:25:58.238Z,11.90
2019-04-27T16:28:27.367Z,11.90
2019-04-27T16:30:55.833Z,11.90
2019-04-27T16:33:24.412Z,11.80
2019-04-27T16:35:57.130Z,11.80
2019-04-27T16:38:26.749Z,11.70
2019-04-27T16:40:59.782Z,11.70
2019-04-27T16:43:30.042Z,11.60
2019-04-27T16:45:57.912Z,11.70
2019-04-27T16:48:29.627Z,11.60
2019-04-27T16:50:59.226Z,11.50
2019-04-27T16:53:30.044Z,11.40
2019-04-27T16:56:06.226Z,11.40
2019-04-27T16:58:39.172Z,11.40
2019-04-27T17:01:13.569Z,11.40
2019-04-27T17:03:42.153Z,11.40
2019-04-27T17:06:11.860Z,11.30
2019-04-27T17:08:40.381Z,11.30
2019-04-27T17:11:13.600Z,11.20
2019-04-27T17:13:44.171Z,11.20
2019-04-27T17:16:24.678Z,11.20
2019-04-27T17:19:04.799Z,11.10
2019-04-27T17:21:33.355Z,11.10
2019-04-27T17:24:03.187Z,11.00
2019-04-27T17:26:35.537Z,11.00
2019-04-27T17:29:11.095Z,11.00
2019-04-27T17:31:38.873Z,10.90
2019-04-27T17:34:08.168Z,10.90
2019-04-27T17:36:38.700Z,10.90
2019-04-27T17:39:08.568Z,10.80
2019-04-27T17:41:37.505Z,10.80
2019-04-27T17:44:06.011Z,10.70
2019-04-27T17:46:34.405Z,10.60
2019-04-27T17:49:02.906Z,10.60
2019-04-27T17:51:35.269Z,10.60
2019-04-27T17:54:02.902Z,10.70
2019-04-27T17:56:35.832Z,10.70
2019-04-27T17:59:01.900Z,10.70
2019-04-27T18:01:31.959Z,10.60
2019-04-27T18:04:03.124Z,10.60
2019-04-27T18:06:30.704Z,10.60
2019-04-27T18:09:00.799Z,10.60
2019-04-27T18:11:32.866Z,10.60
2019-04-27T18:14:00.303Z,10.60
2019-04-27T18:16:34.018Z,10.60
2019-04-27T18:19:11.883Z,10.70
2019-04-27T18:21:42.130Z,10.60
2019-04-27T18:24:12.242Z,10.40
2019-04-27T18:26:49.407Z,10.40
2019-04-27T18:29:15.157Z,10.30
2019-04-27T18:31:46.448Z,10.30
2019-04-27T18:34:15.134Z,10.30
2019-04-27T18:36:44.923Z,10.30
2019-04-27T18:39:13.873Z,10.30
2019-04-27T18:41:49.170Z,10.20
2019-04-27T18:44:12.641Z,10.00
2019-04-27T18:46:41.148Z,10.00
2019-04-27T18:49:14.075Z,10.10
2019-04-27T18:51:44.130Z,10.20
2019-04-27T18:54:12.573Z,10.30
2019-04-27T18:56:43.027Z,10.30
2019-04-27T18:59:12.227Z,10.30
2019-04-27T19:01:40.721Z,10.20
2019-04-27T19:04:09.167Z,10.10
2019-04-27T19:06:39.156Z,9.90
2019-04-27T19:09:08.399Z,9.80
2019-04-27T19:11:38.408Z,9.50
2019-04-27T19:14:08.337Z,9.10
2019-04-27T19:16:38.483Z,9.00
2019-04-27T19:19:08.668Z,8.90
2019-04-27T19:21:38.900Z,9.00
2019-04-27T19:24:08.894Z,9.00
2019-04-27T19:26:50.883Z,8.90
2019-04-27T19:29:26.792Z,8.80
2019-04-27T19:31:58.506Z,8.80
2019-04-27T19:34:28.644Z,8.60
2019-04-27T19:36:59.060Z,8.60
2019-04-27T19:39:31.748Z,8.70
2019-04-27T19:42:03.590Z,8.60
2019-04-27T19:44:30.402Z,8.60
2019-04-27T19:47:00.157Z,8.70
2019-04-27T19:49:31.242Z,8.60
2019-04-27T19:51:59.102Z,8.40
2019-04-27T19:54:28.307Z,8.20
2019-04-27T19:56:59.493Z,8.40
2019-04-27T19:59:29.564Z,8.50
2019-04-27T20:02:08.640Z,8.60
2019-04-27T20:04:38.555Z,8.70
2019-04-27T20:07:10.341Z,8.80
2019-04-27T20:09:41.254Z,8.80
2019-04-27T20:12:10.484Z,8.70
2019-04-27T20:14:57.429Z,8.70
2019-04-27T20:17:31.203Z,8.70
2019-04-27T20:20:00.467Z,8.70
2019-04-27T20:22:28.967Z,8.70
2019-04-27T20:24:57.446Z,8.70
2019-04-27T20:27:45.268Z,8.80
2019-04-27T20:30:08.643Z,8.70
2019-04-27T20:32:37.094Z,8.80
2019-04-27T20:35:07.241Z,8.80
2019-04-27T20:37:35.678Z,8.80
2019-04-27T20:40:06.435Z,8.80
2019-04-27T20:42:35.187Z,8.70
2019-04-27T20:45:05.310Z,8.70
2019-04-27T20:47:33.742Z,8.60
2019-04-27T20:50:02.158Z,8.40
2019-04-27T20:52:32.288Z,8.50
2019-04-27T20:55:01.528Z,8.60
2019-04-27T20:57:31.737Z,8.50
2019-04-27T21:00:01.933Z,8.50
2019-04-27T21:02:32.410Z,8.40
2019-04-27T21:05:02.531Z,8.40
2019-04-27T21:07:38.632Z,8.40
2019-04-27T21:10:07.846Z,8.30
2019-04-27T21:12:37.734Z,8.20
2019-04-27T21:15:06.961Z,8.20
2019-04-27T21:17:35.589Z,8.20
2019-04-27T21:20:05.686Z,8.20
2019-04-27T21:22:34.129Z,8.30
2019-04-27T21:25:02.543Z,8.30
2019-04-27T21:27:31.888Z,8.30
2019-04-27T21:30:02.574Z,8.20
2019-04-27T21:32:30.847Z,8.10
2019-04-27T21:34:59.476Z,8.10
2019-04-27T21:37:28.014Z,8.10
2019-04-27T21:40:06.742Z,8.00
2019-04-27T21:42:35.358Z,8.00
2019-04-27T21:45:05.843Z,7.90
2019-04-27T21:47:34.368Z,7.90
2019-04-27T21:50:02.858Z,7.90
2019-04-27T21:52:33.078Z,8.00
2019-04-27T21:55:01.684Z,7.90
2019-04-27T21:57:31.207Z,7.70
2019-04-27T22:00:00.803Z,7.70
2019-04-27T22:02:32.622Z,7.70
2019-04-27T22:04:59.546Z,7.60
2019-04-27T22:07:27.963Z,7.50
2019-04-27T22:09:56.511Z,7.60
2019-04-27T22:12:25.065Z,7.60
2019-04-27T22:14:53.498Z,7.60
2019-04-27T22:17:21.938Z,7.50
2019-04-27T22:19:51.434Z,7.60
2019-04-27T22:22:21.596Z,7.50
2019-04-27T22:24:51.317Z,7.50
2019-04-27T22:27:20.729Z,7.50
2019-04-27T22:29:50.856Z,7.60
2019-04-27T22:32:19.449Z,7.60
2019-04-27T22:34:47.877Z,7.60
2019-04-27T22:37:16.499Z,7.60
2019-04-27T22:39:48.398Z,7.60
2019-04-27T22:42:27.527Z,7.70
2019-04-27T22:44:57.721Z,7.70
2019-04-27T22:47:26.394Z,7.50
2019-04-27T22:49:54.915Z,7.50
2019-04-27T22:52:23.317Z,7.70
2019-04-27T22:54:51.758Z,7.80
2019-04-27T22:57:23.336Z,7.80
2019-04-27T22:59:53.552Z,7.70
2019-04-27T23:02:29.145Z,7.60
2019-04-27T23:05:01.969Z,7.60
2019-04-27T23:07:31.584Z,7.50
2019-04-27T23:10:01.589Z,7.50
2019-04-27T23:12:31.743Z,7.50
2019-04-27T23:15:00.459Z,7.70
2019-04-27T23:17:31.644Z,7.70
2019-04-27T23:20:01.946Z,7.80
2019-04-27T23:22:31.507Z,7.80
2019-04-27T23:25:01.070Z,7.80
2019-04-27T23:27:31.861Z,7.70
2019-04-27T23:30:01.395Z,7.70
2019-04-27T23:32:37.955Z,7.80
2019-04-27T23:35:07.432Z,7.90
2019-04-27T23:37:35.849Z,7.80
2019-04-27T23:40:07.451Z,7.90
2019-04-27T23:42:35.874Z,7.90
2019-04-27T23:45:09.341Z,7.80
2019-04-27T23:47:38.201Z,7.70
2019-04-27T23:50:07.764Z,7.80
2019-04-27T23:52:54.557Z,7.70
2019-04-27T23:55:24.732Z,7.70
2019-04-27T23:57:53.144Z,7.70
